Frystown, Pennsylvania
Current Conditions -  °F | °C
As of 3:28 AM on Tuesday 21 Oct 2014 (Local Time) from KMUI Reporting Station
Light Rain Light Rain  
Wind Chill: 50°   Ceiling: 6000
Heat Index: 50°   Visibility: 3mi
Dew Point: 50°   Wind: 2mph
Humidity: 100%   Direction: 30°NNE
Pressure: 29.88"   Gusts: NA
Location:  40.3869°N, 76.3173°W
Report Text: KMUI 210728Z AUTO 03002KT 3SM -RA BR BKN060 OVC080 10/10 A2988 RMK AO2 RAB0706 $
Loading
Personal Weather Stations






























Interactive Weather Map
Tropical Storm Tracking
New forecast layout! Learn more

10-Day Weather Forecast

Advertisements
Track Severe Weather on mobile